Malaysia Virtual Airlines Airport Information Service

Koh Samui

ICAO: VTSM Country: Thailand
Latitude: 9.54675 Longitude: 100.062
Latest Arrival : J8608 (WMSA-VTSM) Latest Departure : J8611 (VTSM-WMSA)


WX CaptureLIVE
Data provided by noaa.gov | Fetched at 19:38:39

METAR : VTSM 121300Z 15007KT 9999 FEW020 30/25 Q1006 NOSIG

TAF : VTSM 121700Z 1218/1318 15005KT 9999 FEW020


Runway Data for VTSM
Data provided by openaviationdata.com

Runway ID Mag Var Hdg Length Elevation Surface ILS Freq ILS Id ILS Slope
17 0 174° 8627 ft 23 ft Asphalt -- -- --
35 0 354° 8627 ft 23 ft Asphalt -- -- --

Koh Samui, Thailand
Use only for reference purposes



Not for navigational purposes.